createdAt,value
2022-12-19T00:01:55.381Z,25.35
2022-12-19T00:04:41.232Z,27.17
2022-12-19T00:07:27.501Z,28.15
2022-12-19T00:10:13.362Z,26.30
2022-12-19T00:12:59.106Z,27.25
2022-12-19T00:15:44.923Z,27.05
2022-12-19T00:18:31.335Z,25.95
2022-12-19T00:21:19.604Z,28.10
2022-12-19T00:24:14.513Z,27.92
2022-12-19T00:27:06.637Z,26.80
2022-12-19T00:29:52.313Z,26.85
2022-12-19T00:32:38.316Z,26.00
2022-12-19T00:35:24.298Z,28.70
2022-12-19T00:38:10.433Z,26.98
2022-12-19T00:40:56.458Z,25.63
2022-12-19T00:43:44.116Z,26.52
2022-12-19T00:46:31.757Z,25.77
2022-12-19T00:49:17.704Z,25.85
2022-12-19T00:52:05.565Z,26.75
2022-12-19T00:54:51.430Z,27.08
2022-12-19T00:57:38.744Z,26.70
2022-12-19T01:00:24.434Z,28.63
2022-12-19T01:03:10.230Z,27.35
2022-12-19T01:05:56.857Z,25.42
2022-12-19T01:08:43.194Z,25.58
2022-12-19T01:11:47.339Z,24.02
2022-12-19T01:14:33.353Z,24.48
2022-12-19T01:17:19.825Z,25.42
2022-12-19T01:20:06.016Z,25.00
2022-12-19T01:22:51.838Z,24.83
2022-12-19T01:25:39.109Z,24.00
2022-12-19T01:28:30.905Z,24.55
2022-12-19T01:31:16.744Z,25.58
2022-12-19T01:34:04.701Z,24.10
2022-12-19T01:36:51.522Z,24.00
2022-12-19T01:39:37.456Z,23.30
2022-12-19T01:42:25.645Z,23.58
2022-12-19T01:45:13.995Z,23.98
2022-12-19T01:48:05.488Z,21.95
2022-12-19T01:51:03.376Z,24.35
2022-12-19T01:54:00.561Z,21.88
2022-12-19T01:56:55.815Z,24.13
2022-12-19T01:59:57.236Z,22.67
2022-12-19T02:02:54.853Z,23.63
2022-12-19T02:05:41.250Z,23.48
2022-12-19T02:08:28.459Z,22.20
2022-12-19T02:11:16.501Z,22.00
2022-12-19T02:14:02.570Z,20.95
2022-12-19T02:16:54.431Z,22.70
2022-12-19T02:20:03.590Z,22.02
2022-12-19T02:23:16.025Z,21.67
2022-12-19T02:26:23.909Z,23.08
2022-12-19T02:29:39.759Z,21.45
2022-12-19T02:32:38.411Z,21.55
2022-12-19T02:35:41.980Z,21.27
2022-12-19T02:41:26.076Z,20.33
2022-12-19T02:44:42.898Z,21.35
2022-12-19T02:47:29.970Z,21.75
2022-12-19T02:50:16.420Z,21.90
2022-12-19T02:53:02.231Z,21.55
2022-12-19T02:56:03.634Z,22.50
2022-12-19T02:59:22.337Z,21.35
2022-12-19T03:03:01.244Z,21.73
2022-12-19T03:06:12.656Z,21.42
2022-12-19T03:09:16.058Z,20.60
2022-12-19T03:12:17.550Z,21.58
2022-12-19T03:15:04.612Z,21.80
2022-12-19T03:17:51.163Z,21.02
2022-12-19T03:20:48.258Z,21.70
2022-12-19T03:23:34.371Z,21.83
2022-12-19T03:26:23.657Z,20.90
2022-12-19T03:29:20.010Z,21.23
2022-12-19T03:32:11.179Z,20.98
2022-12-19T03:35:07.438Z,21.95
2022-12-19T03:38:10.584Z,21.52
2022-12-19T03:40:57.045Z,21.98
2022-12-19T03:43:44.952Z,23.50
2022-12-19T03:46:31.183Z,23.65
2022-12-19T03:49:17.392Z,21.73
2022-12-19T03:52:06.365Z,22.77
2022-12-19T03:55:01.431Z,22.23
2022-12-19T03:57:52.658Z,23.17
2022-12-19T04:00:40.644Z,20.95
2022-12-19T04:03:28.059Z,23.50
2022-12-19T04:06:14.633Z,22.38
2022-12-19T04:09:01.693Z,21.55
2022-12-19T04:11:52.450Z,21.33
2022-12-19T04:14:39.074Z,21.70
2022-12-19T04:17:53.755Z,21.83
2022-12-19T04:20:41.476Z,20.30
2022-12-19T04:23:47.677Z,20.77
2022-12-19T04:26:35.225Z,19.25
2022-12-19T04:29:22.139Z,18.73
2022-12-19T04:32:09.105Z,17.38
2022-12-19T04:34:54.899Z,16.15
2022-12-19T04:37:40.662Z,15.02
2022-12-19T04:40:26.303Z,14.55
2022-12-19T04:43:12.134Z,13.95
2022-12-19T04:45:58.069Z,14.07
2022-12-19T04:48:43.771Z,18.83
2022-12-19T04:51:29.642Z,21.25
2022-12-19T04:54:16.025Z,21.77
2022-12-19T04:57:02.095Z,23.05
2022-12-19T04:59:47.874Z,22.05
2022-12-19T05:02:33.881Z,22.83
2022-12-19T05:05:20.009Z,20.55
2022-12-19T05:08:05.993Z,21.75
2022-12-19T05:10:51.815Z,23.00
2022-12-19T05:13:37.821Z,22.85
2022-12-19T05:16:23.761Z,22.90
2022-12-19T05:19:09.786Z,22.13
2022-12-19T05:21:55.741Z,22.23
2022-12-19T05:24:41.774Z,21.65
2022-12-19T05:27:27.695Z,22.00
2022-12-19T05:30:13.511Z,23.27
2022-12-19T05:32:59.545Z,22.73
2022-12-19T05:35:45.500Z,22.77
2022-12-19T05:38:31.443Z,25.10
2022-12-19T05:41:19.211Z,23.55
2022-12-19T05:44:05.266Z,25.88
2022-12-19T05:46:50.987Z,23.20
2022-12-19T05:49:36.827Z,25.05
2022-12-19T05:52:23.139Z,24.73
2022-12-19T05:55:09.955Z,26.00
2022-12-19T05:57:55.868Z,23.77
2022-12-19T06:00:41.560Z,18.13
2022-12-19T06:03:28.210Z,18.70
2022-12-19T06:06:17.192Z,15.65
2022-12-19T06:09:03.055Z,14.35
2022-12-19T06:11:48.783Z,15.95
2022-12-19T06:14:34.565Z,15.57
2022-12-19T06:17:20.477Z,17.35
2022-12-19T06:20:07.118Z,15.13
2022-12-19T06:22:53.227Z,13.35
2022-12-19T06:25:38.948Z,14.75
2022-12-19T06:28:25.732Z,17.30
2022-12-19T06:31:12.316Z,16.83
2022-12-19T06:33:58.206Z,16.45
2022-12-19T06:36:44.055Z,14.95
2022-12-19T06:39:30.434Z,13.88
2022-12-19T06:42:25.601Z,11.80
2022-12-19T06:45:11.632Z,12.77
2022-12-19T06:47:57.664Z,13.00
2022-12-19T06:50:45.664Z,12.48
2022-12-19T06:53:31.494Z,12.30
2022-12-19T06:56:18.047Z,12.70
2022-12-19T06:59:05.162Z,13.10
2022-12-19T07:02:00.520Z,12.30
2022-12-19T07:05:02.592Z,13.35
2022-12-19T07:07:48.633Z,12.45
2022-12-19T07:10:34.615Z,12.40
2022-12-19T07:13:20.777Z,12.00
2022-12-19T07:16:07.271Z,12.00
2022-12-19T07:18:53.118Z,12.45
2022-12-19T07:21:39.418Z,13.80
2022-12-19T07:24:25.979Z,13.50
2022-12-19T07:27:11.729Z,13.73
2022-12-19T07:29:57.655Z,12.15
2022-12-19T07:32:43.600Z,10.95
2022-12-19T07:35:29.730Z,11.45
2022-12-19T07:38:15.511Z,11.73
2022-12-19T07:41:02.162Z,9.48
2022-12-19T07:43:47.751Z,13.35
2022-12-19T07:46:33.497Z,17.30
2022-12-19T07:49:22.652Z,20.73
2022-12-19T07:52:08.879Z,21.48
2022-12-19T07:54:54.715Z,23.52
2022-12-19T07:57:40.799Z,20.60
2022-12-19T08:00:26.585Z,23.17
2022-12-19T08:03:12.842Z,25.92
2022-12-19T08:06:06.589Z,24.00
2022-12-19T08:11:38.276Z,24.67
2022-12-19T08:14:25.139Z,23.75
2022-12-19T08:17:20.300Z,24.50
2022-12-19T08:20:07.967Z,24.25
2022-12-19T08:22:54.006Z,23.42
2022-12-19T08:25:39.941Z,23.55
2022-12-19T08:28:26.338Z,24.02
2022-12-19T08:31:15.333Z,22.83
2022-12-19T08:34:01.367Z,21.13
2022-12-19T08:36:47.253Z,21.88
2022-12-19T08:39:33.279Z,22.60
2022-12-19T08:42:19.145Z,21.60
2022-12-19T08:45:05.904Z,22.40
2022-12-19T08:47:51.950Z,24.58
2022-12-19T08:50:37.600Z,23.90
2022-12-19T08:53:26.667Z,25.45
2022-12-19T08:56:16.770Z,28.83
2022-12-19T08:59:02.611Z,24.08
2022-12-19T09:01:48.737Z,24.45
2022-12-19T09:06:01.224Z,24.98
2022-12-19T09:07:41.079Z,26.30
2022-12-19T09:10:27.399Z,27.40
2022-12-19T09:13:13.646Z,26.95
2022-12-19T09:16:05.799Z,25.08
2022-12-19T09:18:54.673Z,27.10
2022-12-19T09:21:40.613Z,28.45
2022-12-19T09:24:26.507Z,29.33
2022-12-19T09:27:12.283Z,26.63
2022-12-19T09:29:59.833Z,29.13
2022-12-19T09:32:45.666Z,28.90
2022-12-19T09:35:31.483Z,28.50
2022-12-19T09:38:17.244Z,25.05
2022-12-19T09:41:31.627Z,25.88
2022-12-19T09:44:32.764Z,26.17
2022-12-19T09:47:21.872Z,26.35
2022-12-19T09:50:26.327Z,28.77
2022-12-19T09:53:31.890Z,29.38
2022-12-19T09:56:18.247Z,29.65
2022-12-19T09:59:49.875Z,26.38
2022-12-19T10:02:56.696Z,41.90
2022-12-19T10:07:15.825Z,107.18
2022-12-19T10:10:16.581Z,42.92
2022-12-19T10:12:51.176Z,30.83
2022-12-19T10:15:59.055Z,30.05
2022-12-19T10:18:57.353Z,30.23
2022-12-19T10:25:25.258Z,31.33
2022-12-19T10:28:26.418Z,31.30
2022-12-19T10:31:22.243Z,31.85
2022-12-19T10:34:21.161Z,32.88
2022-12-19T10:37:49.642Z,29.92
2022-12-19T10:41:44.001Z,29.48
2022-12-19T10:44:30.966Z,28.42
2022-12-19T10:47:17.638Z,24.80
2022-12-19T10:50:09.283Z,24.05
2022-12-19T10:53:15.032Z,21.65
2022-12-19T10:56:12.648Z,33.78
2022-12-19T10:58:59.253Z,26.27
2022-12-19T11:02:00.351Z,29.70
2022-12-19T11:05:20.015Z,27.98
2022-12-19T11:08:08.750Z,29.65
2022-12-19T11:15:44.153Z,31.13
2022-12-19T11:18:47.201Z,30.85
2022-12-19T11:24:30.022Z,26.42
2022-12-19T11:29:32.821Z,22.48
2022-12-19T11:29:54.274Z,26.42
2022-12-19T11:30:25.964Z,26.35
2022-12-19T11:34:16.099Z,28.67
2022-12-19T11:37:17.523Z,29.25
2022-12-19T11:40:25.706Z,28.40
2022-12-19T11:43:47.170Z,28.98
2022-12-19T11:46:34.533Z,29.30
2022-12-19T11:49:31.282Z,31.27
2022-12-19T11:53:13.010Z,27.08
2022-12-19T11:56:03.956Z,27.02
2022-12-19T11:58:55.148Z,27.70
2022-12-19T12:01:59.085Z,29.98
2022-12-19T12:04:45.226Z,27.20
2022-12-19T12:08:44.438Z,24.35
2022-12-19T12:16:13.578Z,22.25
2022-12-19T12:23:50.593Z,22.40
2022-12-19T12:31:04.067Z,23.35
2022-12-19T12:31:26.662Z,27.05
2022-12-19T12:31:29.545Z,26.80
2022-12-19T12:31:58.821Z,27.27
2022-12-19T12:35:35.102Z,26.90
2022-12-19T12:35:46.563Z,26.38
2022-12-19T12:41:15.026Z,25.10
2022-12-19T12:44:09.256Z,23.55
2022-12-19T12:47:05.306Z,22.50
2022-12-19T12:49:59.176Z,22.55
2022-12-19T12:52:51.096Z,25.95
2022-12-19T12:55:41.841Z,26.42
2022-12-19T12:58:50.123Z,26.02
2022-12-19T13:01:40.654Z,26.70
2022-12-19T13:04:35.302Z,27.20
2022-12-19T13:07:42.213Z,34.22
2022-12-19T13:10:32.160Z,36.00
2022-12-19T13:13:24.155Z,41.30
2022-12-19T13:16:45.993Z,40.58
2022-12-19T13:19:37.603Z,40.63
2022-12-19T13:22:29.693Z,40.75
2022-12-19T13:25:38.924Z,45.72
2022-12-19T13:28:25.008Z,54.10
2022-12-19T13:31:20.399Z,50.55
2022-12-19T13:34:17.629Z,46.10
2022-12-19T13:39:52.340Z,43.22
2022-12-19T13:40:51.184Z,44.55
2022-12-19T13:43:49.536Z,46.00
2022-12-19T13:46:40.323Z,48.28
2022-12-19T13:49:34.203Z,46.83
2022-12-19T13:52:23.008Z,44.08
2022-12-19T13:55:14.360Z,44.33
2022-12-19T13:58:04.403Z,45.33
2022-12-19T14:00:53.809Z,43.35
2022-12-19T14:03:43.178Z,44.33
2022-12-19T14:06:31.236Z,44.30
2022-12-19T14:11:28.011Z,45.80
2022-12-19T14:13:39.627Z,46.08
2022-12-19T14:16:05.304Z,46.20
2022-12-19T14:18:51.607Z,46.22
2022-12-19T14:22:09.747Z,45.08
2022-12-19T14:25:33.275Z,47.35
2022-12-19T14:28:18.428Z,42.80
2022-12-19T14:31:12.667Z,44.92
2022-12-19T14:34:27.178Z,48.00
2022-12-19T14:41:07.199Z,45.78
2022-12-19T14:43:59.551Z,47.83
2022-12-19T14:54:21.705Z,56.95
2022-12-19T14:54:23.041Z,48.58
2022-12-19T14:54:24.477Z,49.45
2022-12-19T14:57:00.938Z,61.08
2022-12-19T14:59:48.662Z,74.97
2022-12-19T15:02:35.319Z,63.40
2022-12-19T15:05:22.048Z,66.93
2022-12-19T15:08:11.087Z,62.85
2022-12-19T15:11:44.636Z,57.53
2022-12-19T15:14:52.916Z,48.10
2022-12-19T15:17:47.798Z,53.65
2022-12-19T15:20:33.589Z,48.60
2022-12-19T15:23:22.714Z,43.78
2022-12-19T15:26:16.139Z,46.45
2022-12-19T15:29:03.103Z,40.85
2022-12-19T15:31:49.148Z,41.33
2022-12-19T15:34:40.512Z,36.97
2022-12-19T15:37:32.522Z,37.15
2022-12-19T15:40:18.946Z,34.58
2022-12-19T15:43:05.512Z,35.80
2022-12-19T15:45:56.005Z,47.00
2022-12-19T15:48:46.560Z,48.15
2022-12-19T15:51:32.589Z,49.17
2022-12-19T15:57:37.933Z,47.28
2022-12-19T16:00:26.929Z,51.75
2022-12-19T16:03:23.593Z,52.90
2022-12-19T16:06:15.174Z,56.03
2022-12-19T16:09:01.474Z,56.40
2022-12-19T16:11:48.349Z,58.42
2022-12-19T16:14:34.293Z,58.05
2022-12-19T16:17:22.337Z,54.38
2022-12-19T16:20:21.861Z,49.70
2022-12-19T16:23:08.452Z,50.25
2022-12-19T16:25:54.267Z,46.35
2022-12-19T16:28:40.455Z,43.88
2022-12-19T16:31:28.068Z,46.60
2022-12-19T16:34:19.672Z,44.05
2022-12-19T16:37:05.467Z,48.17
2022-12-19T16:39:51.583Z,48.25
2022-12-19T16:42:37.649Z,54.00
2022-12-19T16:45:25.467Z,56.17
2022-12-19T16:48:19.037Z,62.80
2022-12-19T16:53:52.893Z,78.20
2022-12-19T16:56:54.919Z,66.03
2022-12-19T16:59:41.061Z,59.28
2022-12-19T17:02:45.964Z,61.08
2022-12-19T17:05:32.853Z,62.47
2022-12-19T17:08:19.360Z,62.53
2022-12-19T17:11:08.028Z,66.55
2022-12-19T17:14:02.489Z,73.45
2022-12-19T17:16:49.240Z,70.93
2022-12-19T17:19:39.385Z,64.97
2022-12-19T17:22:25.453Z,68.40
2022-12-19T17:25:24.469Z,68.30
2022-12-19T17:28:11.423Z,68.18
2022-12-19T17:31:00.172Z,64.13
2022-12-19T17:33:46.619Z,68.40
2022-12-19T17:36:37.044Z,70.47
2022-12-19T17:39:26.025Z,69.60
2022-12-19T17:42:22.296Z,69.45
2022-12-19T17:45:09.198Z,71.95
2022-12-19T17:48:02.348Z,69.15
2022-12-19T17:50:48.941Z,61.17
2022-12-19T17:53:35.098Z,61.63
2022-12-19T17:56:22.197Z,59.90
2022-12-19T17:59:07.942Z,61.33
2022-12-19T18:01:54.688Z,61.40
2022-12-19T18:04:40.843Z,55.28
2022-12-19T18:07:26.617Z,56.80
2022-12-19T18:10:38.775Z,55.00
2022-12-19T18:13:26.913Z,53.80
2022-12-19T18:16:15.162Z,52.95
2022-12-19T18:19:01.540Z,53.20
2022-12-19T18:21:48.140Z,54.40
2022-12-19T18:24:34.206Z,54.17
2022-12-19T18:27:20.190Z,53.67
2022-12-19T18:30:06.733Z,52.13
2022-12-19T18:32:58.665Z,53.85
2022-12-19T18:35:50.104Z,55.20
2022-12-19T18:38:36.166Z,58.17
2022-12-19T18:41:22.861Z,79.30
2022-12-19T18:44:09.043Z,57.67
2022-12-19T18:46:55.292Z,78.78
2022-12-19T18:49:41.388Z,59.08
2022-12-19T18:52:28.391Z,56.97
2022-12-19T18:55:19.445Z,53.80
2022-12-19T18:58:05.665Z,56.33
2022-12-19T19:00:57.287Z,53.47
2022-12-19T19:03:53.723Z,50.55
2022-12-19T19:06:46.421Z,50.30
2022-12-19T19:09:36.075Z,63.10
2022-12-19T19:12:42.646Z,49.03
2022-12-19T19:15:31.329Z,45.65
2022-12-19T19:18:23.413Z,45.20
2022-12-19T19:21:11.490Z,47.33
2022-12-19T19:24:06.377Z,48.30
2022-12-19T19:26:52.233Z,46.88
2022-12-19T19:29:38.938Z,45.58
2022-12-19T19:32:25.642Z,47.05
2022-12-19T19:35:11.756Z,46.60
2022-12-19T19:38:00.551Z,47.28
2022-12-19T19:40:46.526Z,44.30
2022-12-19T19:43:35.586Z,50.42
2022-12-19T19:46:21.867Z,51.22
2022-12-19T19:49:08.011Z,48.53
2022-12-19T19:51:58.652Z,49.20
2022-12-19T19:54:48.507Z,46.65
2022-12-19T19:57:35.093Z,44.83
2022-12-19T20:00:21.907Z,45.83
2022-12-19T20:03:10.240Z,46.75
2022-12-19T20:06:01.616Z,46.05
2022-12-19T20:08:47.862Z,47.42
2022-12-19T20:11:33.916Z,44.58
2022-12-19T20:14:19.902Z,44.95
2022-12-19T20:17:05.875Z,44.50
2022-12-19T20:19:51.880Z,44.83
2022-12-19T20:22:37.744Z,43.17
2022-12-19T20:25:23.911Z,46.10
2022-12-19T20:28:10.371Z,45.78
2022-12-19T20:30:56.516Z,46.22
2022-12-19T20:33:42.571Z,48.65
2022-12-19T20:36:28.846Z,46.28
2022-12-19T20:39:15.381Z,48.05
2022-12-19T20:42:01.410Z,50.03
2022-12-19T20:44:47.602Z,48.22
2022-12-19T20:47:33.617Z,49.20
2022-12-19T20:50:19.585Z,49.95
2022-12-19T20:53:05.436Z,50.47
2022-12-19T20:55:58.091Z,48.58
2022-12-19T20:58:47.487Z,47.00
2022-12-19T21:01:33.702Z,45.10
2022-12-19T21:04:19.996Z,53.05
2022-12-19T21:07:06.212Z,56.30
2022-12-19T21:09:54.093Z,53.70
2022-12-19T21:12:47.184Z,44.80
2022-12-19T21:15:34.631Z,41.95
2022-12-19T21:18:23.127Z,38.88
2022-12-19T21:21:15.083Z,39.67
2022-12-19T21:24:05.700Z,40.60
2022-12-19T21:26:57.838Z,44.40
2022-12-19T21:29:45.462Z,49.80
2022-12-19T21:32:33.519Z,48.38
2022-12-19T21:35:20.911Z,49.15
2022-12-19T21:38:06.997Z,50.05
2022-12-19T21:40:52.818Z,51.92
2022-12-19T21:43:38.820Z,50.03
2022-12-19T21:46:28.330Z,52.08
2022-12-19T21:49:14.311Z,51.92
2022-12-19T21:52:00.657Z,53.10
2022-12-19T21:54:46.692Z,50.70
2022-12-19T21:57:32.449Z,48.10
2022-12-19T22:00:18.619Z,47.30
2022-12-19T22:03:19.855Z,46.90
2022-12-19T22:06:19.968Z,49.05
2022-12-19T22:09:14.875Z,47.42
2022-12-19T22:12:01.089Z,48.08
2022-12-19T22:14:47.414Z,48.67
2022-12-19T22:17:33.335Z,45.25
2022-12-19T22:20:19.178Z,46.15
2022-12-19T22:23:11.315Z,48.08
2022-12-19T22:26:05.142Z,48.00
2022-12-19T22:28:53.277Z,47.20
2022-12-19T22:31:39.972Z,50.13
2022-12-19T22:34:25.893Z,48.88
2022-12-19T22:37:11.619Z,50.17
2022-12-19T22:40:00.189Z,48.40
2022-12-19T22:42:46.238Z,50.25
2022-12-19T22:45:31.894Z,50.10
2022-12-19T22:48:17.612Z,46.22
2022-12-19T22:51:04.039Z,50.70
2022-12-19T22:53:50.047Z,49.80
2022-12-19T22:56:36.256Z,48.85
2022-12-19T22:59:22.082Z,51.75
2022-12-19T23:02:08.872Z,49.90
2022-12-19T23:04:54.948Z,50.60
2022-12-19T23:07:40.658Z,52.97
2022-12-19T23:10:26.560Z,53.70
2022-12-19T23:13:12.593Z,52.90
2022-12-19T23:15:58.476Z,51.00
2022-12-19T23:18:44.626Z,49.65
2022-12-19T23:21:30.702Z,49.45
2022-12-19T23:24:16.730Z,49.38
2022-12-19T23:27:02.925Z,49.78
2022-12-19T23:29:49.725Z,50.30
2022-12-19T23:32:35.907Z,50.53
2022-12-19T23:35:21.929Z,53.05
2022-12-19T23:38:07.767Z,51.72
2022-12-19T23:41:02.048Z,50.30
2022-12-19T23:43:48.665Z,50.40
2022-12-19T23:46:34.585Z,47.53
2022-12-19T23:49:20.167Z,52.78
2022-12-19T23:52:06.160Z,51.95
2022-12-19T23:54:52.335Z,51.40
2022-12-19T23:57:38.346Z,54.00
